Time;durP1;ratioP1;P1;durP2;ratioP2;P2;SDS_P1;SDS_P2;PMS_P1;PMS_P2;Temp;Humidity;BMP_temperature;BMP_pressure;BME280_temperature;BME280_humidity;BME280_pressure;Samples;Min_cycle;Max_cycle;Signal;HPM_P1;HPM_P2
2023/08/05 00:01:21;;;;;;;3.55;2.13;;;;;;;;;;5077393;28;20020;-28
2023/08/05 00:03:47;;;;;;;2.58;2.38;;;;;;;;;;5077558;28;20027;-28
2023/08/05 00:06:13;;;;;;;2.53;2.42;;;;;;;;;;5077501;28;20078;-28
2023/08/05 00:08:39;;;;;;;4.03;2.10;;;;;;;;;;5077785;28;20024;-29
2023/08/05 00:11:05;;;;;;;2.63;2.33;;;;;;;;;;5077654;28;20028;-29
2023/08/05 00:13:34;;;;;;;2.78;2.53;;;;;;;;;;5077637;28;20100;-28
2023/08/05 00:16:01;;;;;;;2.72;2.53;;;;;;;;;;5059707;28;20029;-28
2023/08/05 00:18:27;;;;;;;2.08;1.83;;;;;;;;;;5077307;28;20033;-28
2023/08/05 00:20:53;;;;;;;3.72;3.42;;;;;;;;;;5077115;28;20116;-28
2023/08/05 00:23:19;;;;;;;5.45;2.35;;;;;;;;;;5077491;28;20048;-28
2023/08/05 00:25:46;;;;;;;2.17;2.08;;;;;;;;;;5077203;28;20098;-28
2023/08/05 00:28:12;;;;;;;3.08;2.22;;;;;;;;;;5077154;28;20447;-28
2023/08/05 00:30:38;;;;;;;2.28;2.08;;;;;;;;;;5077005;28;20516;-28
2023/08/05 00:33:04;;;;;;;1.85;1.75;;;;;;;;;;5077079;28;20020;-28
2023/08/05 00:35:30;;;;;;;3.97;2.00;;;;;;;;;;5077285;28;20028;-28
2023/08/05 00:37:56;;;;;;;2.40;2.20;;;;;;;;;;5076970;28;20514;-28
2023/08/05 00:40:22;;;;;;;2.45;2.25;;;;;;;;;;5058920;28;20048;-28
2023/08/05 00:42:48;;;;;;;2.15;1.95;;;;;;;;;;5077172;28;20348;-28
2023/08/05 00:45:14;;;;;;;2.78;2.15;;;;;;;;;;5077073;28;20024;-29
2023/08/05 00:47:41;;;;;;;3.03;2.08;;;;;;;;;;5077117;28;20374;-28
2023/08/05 00:50:08;;;;;;;2.22;2.08;;;;;;;;;;5076917;28;20023;-29
2023/08/05 00:52:35;;;;;;;2.42;1.83;;;;;;;;;;5076983;28;20120;-28
2023/08/05 00:55:01;;;;;;;2.50;2.08;;;;;;;;;;5076891;28;20078;-28
2023/08/05 00:57:27;;;;;;;2.78;2.40;;;;;;;;;;5076822;28;20024;-28
2023/08/05 00:59:53;;;;;;;3.58;1.90;;;;;;;;;;5076853;28;20355;-28
2023/08/05 01:02:19;;;;;;;2.40;2.20;;;;;;;;;;5076166;28;20090;-29
2023/08/05 01:04:45;;;;;;;4.30;1.90;;;;;;;;;;5076993;28;20102;-29
2023/08/05 01:07:12;;;;;;;2.05;1.95;;;;;;;;;;5058780;28;20017;-29
2023/08/05 01:09:38;;;;;;;2.55;1.73;;;;;;;;;;5076272;28;20051;-28
2023/08/05 01:12:05;;;;;;;2.40;2.20;;;;;;;;;;5076543;28;20406;-28
2023/08/05 01:14:31;;;;;;;2.78;1.83;;;;;;;;;;5076249;28;20447;-29
2023/08/05 01:16:58;;;;;;;2.00;1.88;;;;;;;;;;5076472;28;20386;-29
2023/08/05 01:19:24;;;;;;;2.63;2.10;;;;;;;;;;5076070;28;20201;-29
2023/08/05 01:22:16;;;;;;;2.00;1.90;;;;;;;;;;5076018;28;20383;-28
2023/08/05 01:24:52;;;;;;;2.28;1.98;;;;;;;;;;5072495;28;20028;-28
2023/08/05 01:27:18;;;;;;;1.75;1.65;;;;;;;;;;5076041;28;20082;-29
2023/08/05 01:29:45;;;;;;;5.03;1.90;;;;;;;;;;5075933;28;20455;-28
2023/08/05 01:32:11;;;;;;;2.55;2.20;;;;;;;;;;5058287;28;20448;-28
2023/08/05 01:34:38;;;;;;;2.47;2.00;;;;;;;;;;5058236;28;20035;-29
2023/08/05 01:37:04;;;;;;;2.40;2.20;;;;;;;;;;5075804;28;20333;-29
2023/08/05 01:39:30;;;;;;;2.38;2.10;;;;;;;;;;5058563;28;20471;-28
2023/08/05 01:41:56;;;;;;;2.05;1.90;;;;;;;;;;5075453;28;20052;-29
2023/08/05 01:44:23;;;;;;;3.38;2.47;;;;;;;;;;5075923;28;20020;-29
2023/08/05 01:46:49;;;;;;;2.80;2.60;;;;;;;;;;5075599;28;20021;-28
2023/08/05 01:49:15;;;;;;;3.50;1.90;;;;;;;;;;5075553;28;20078;-29
2023/08/05 01:51:41;;;;;;;2.30;1.85;;;;;;;;;;5075487;28;20028;-28
2023/08/05 01:54:07;;;;;;;2.20;2.00;;;;;;;;;;5075423;28;20028;-28
2023/08/05 01:56:33;;;;;;;3.25;1.90;;;;;;;;;;5075380;28;20025;-28
2023/08/05 01:58:59;;;;;;;1.80;1.70;;;;;;;;;;5075405;28;20028;-29
2023/08/05 02:01:41;;;;;;;3.17;2.20;;;;;;;;;;5075200;28;20493;-28
2023/08/05 02:04:07;;;;;;;2.05;1.83;;;;;;;;;;5075520;28;20467;-29
2023/08/05 02:06:33;;;;;;;4.22;1.92;;;;;;;;;;5075275;28;20044;-28
2023/08/05 02:08:59;;;;;;;1.90;1.80;;;;;;;;;;5075961;28;20020;-28
2023/08/05 02:11:26;;;;;;;2.20;2.05;;;;;;;;;;5075073;28;20052;-29
2023/08/05 02:13:52;;;;;;;1.80;1.70;;;;;;;;;;5074493;28;20090;-29
2023/08/05 02:16:18;;;;;;;2.53;2.30;;;;;;;;;;5057479;28;20028;-28
2023/08/05 02:18:45;;;;;;;2.38;2.20;;;;;;;;;;5075291;28;20020;-29
2023/08/05 02:21:11;;;;;;;1.88;1.77;;;;;;;;;;5074872;28;20025;-28
2023/08/05 02:23:37;;;;;;;2.10;1.58;;;;;;;;;;5074966;28;20059;-29
2023/08/05 02:26:04;;;;;;;2.30;2.10;;;;;;;;;;5074901;28;20017;-29
2023/08/05 02:28:30;;;;;;;2.00;1.70;;;;;;;;;;5075139;28;20036;-31
2023/08/05 02:30:56;;;;;;;2.60;1.85;;;;;;;;;;5074783;28;20040;-28
2023/08/05 02:33:22;;;;;;;2.92;2.38;;;;;;;;;;5075073;28;20419;-29
2023/08/05 02:35:48;;;;;;;2.10;1.92;;;;;;;;;;5074733;28;20027;-29
2023/08/05 02:38:14;;;;;;;2.20;1.92;;;;;;;;;;5075035;28;20390;-28
2023/08/05 02:40:40;;;;;;;1.30;1.30;;;;;;;;;;5074378;28;20044;-28
2023/08/05 02:43:07;;;;;;;2.35;1.80;;;;;;;;;;5074696;28;20028;-30
2023/08/05 02:45:33;;;;;;;1.90;1.80;;;;;;;;;;5074939;28;20050;-30
2023/08/05 02:47:59;;;;;;;1.92;1.83;;;;;;;;;;5074608;28;20459;-28
2023/08/05 02:50:25;;;;;;;2.60;2.25;;;;;;;;;;5074541;28;20025;-28
2023/08/05 02:52:51;;;;;;;2.70;2.45;;;;;;;;;;5074856;28;20028;-28
2023/08/05 02:55:17;;;;;;;1.83;1.60;;;;;;;;;;5074836;28;20021;-29
2023/08/05 02:57:43;;;;;;;1.83;1.73;;;;;;;;;;5074818;28;20036;-28
2023/08/05 03:00:10;;;;;;;3.08;2.30;;;;;;;;;;5074388;28;20027;-29
2023/08/05 03:02:36;;;;;;;1.55;1.45;;;;;;;;;;5074775;28;20478;-28
2023/08/05 03:05:02;;;;;;;2.97;1.90;;;;;;;;;;5074739;28;20025;-29
2023/08/05 03:07:28;;;;;;;3.30;1.48;;;;;;;;;;5056773;28;20128;-29
2023/08/05 03:09:54;;;;;;;1.60;1.50;;;;;;;;;;5074385;28;20104;-28
2023/08/05 03:12:20;;;;;;;1.95;1.83;;;;;;;;;;5074390;28;20028;-28
2023/08/05 03:14:47;;;;;;;2.13;2.00;;;;;;;;;;5057006;28;20048;-28
2023/08/05 03:17:13;;;;;;;1.63;1.52;;;;;;;;;;5074645;28;20032;-28
2023/08/05 03:19:39;;;;;;;2.00;1.90;;;;;;;;;;5074553;28;20052;-28
2023/08/05 03:22:05;;;;;;;1.83;1.73;;;;;;;;;;5074248;28;20121;-28
2023/08/05 03:24:31;;;;;;;1.70;1.60;;;;;;;;;;5076763;28;20024;-29
2023/08/05 03:26:57;;;;;;;2.95;1.98;;;;;;;;;;5078363;28;20359;-29
2023/08/05 03:29:23;;;;;;;1.80;1.70;;;;;;;;;;5078219;28;20024;-29
2023/08/05 03:31:49;;;;;;;1.80;1.70;;;;;;;;;;5078470;28;20462;-28
2023/08/05 03:34:16;;;;;;;2.17;1.73;;;;;;;;;;5078142;28;20034;-29
2023/08/05 03:36:42;;;;;;;1.58;1.35;;;;;;;;;;5078374;28;20025;-29
2023/08/05 03:39:09;;;;;;;2.60;2.40;;;;;;;;;;5078305;28;20325;-28
2023/08/05 03:41:35;;;;;;;2.58;1.63;;;;;;;;;;5077676;28;20045;-29
2023/08/05 03:44:01;;;;;;;2.20;2.10;;;;;;;;;;5077939;28;20040;-29
2023/08/05 03:46:28;;;;;;;1.98;1.88;;;;;;;;;;5077927;28;20028;-29
2023/08/05 03:48:55;;;;;;;4.10;1.83;;;;;;;;;;5078171;28;20021;-29
2023/08/05 03:51:21;;;;;;;2.15;1.85;;;;;;;;;;5077785;28;20124;-29
2023/08/05 03:53:47;;;;;;;2.05;1.48;;;;;;;;;;5077790;28;20024;-28
2023/08/05 03:56:14;;;;;;;2.88;2.28;;;;;;;;;;5077696;28;20451;-28
2023/08/05 03:58:40;;;;;;;1.98;1.80;;;;;;;;;;5077979;28;20035;-29
2023/08/05 04:01:07;;;;;;;1.60;1.33;;;;;;;;;;5077460;28;20028;-28
2023/08/05 04:03:36;;;;;;;2.05;1.90;;;;;;;;;;5077566;28;20036;-28
2023/08/05 04:06:02;;;;;;;1.48;1.40;;;;;;;;;;5077793;28;20025;-29
2023/08/05 04:08:28;;;;;;;1.35;1.35;;;;;;;;;;5077789;28;20467;-28
2023/08/05 04:10:54;;;;;;;1.60;1.50;;;;;;;;;;5077511;28;20082;-29
2023/08/05 04:13:24;;;;;;;1.80;1.70;;;;;;;;;;5077490;28;20421;-28
2023/08/05 04:15:53;;;;;;;2.03;1.92;;;;;;;;;;5077406;28;20116;-28
2023/08/05 04:18:19;;;;;;;2.17;1.77;;;;;;;;;;5077364;28;20099;-28
2023/08/05 04:20:46;;;;;;;1.60;1.50;;;;;;;;;;5077493;28;20502;-28
2023/08/05 04:23:16;;;;;;;2.45;1.65;;;;;;;;;;5077256;28;20020;-28
2023/08/05 04:25:45;;;;;;;2.42;1.90;;;;;;;;;;5077457;28;20021;-28
2023/08/05 04:28:12;;;;;;;1.73;1.63;;;;;;;;;;5059555;28;20452;-28
2023/08/05 04:30:38;;;;;;;1.58;1.48;;;;;;;;;;5077075;28;20029;-29
2023/08/05 04:33:04;;;;;;;2.28;2.10;;;;;;;;;;5077159;28;20095;-28
2023/08/05 04:35:30;;;;;;;4.28;1.50;;;;;;;;;;5076685;28;20075;-28
2023/08/05 04:37:56;;;;;;;1.88;1.67;;;;;;;;;;5076968;28;20036;-28
2023/08/05 04:40:22;;;;;;;2.90;1.70;;;;;;;;;;5076623;28;20045;-29
2023/08/05 04:42:48;;;;;;;1.63;1.52;;;;;;;;;;5059340;28;20465;-29
2023/08/05 04:45:15;;;;;;;1.52;1.30;;;;;;;;;;5076914;28;20055;-29
2023/08/05 04:47:41;;;;;;;1.70;1.60;;;;;;;;;;5077093;28;20020;-29
2023/08/05 04:50:07;;;;;;;1.63;1.52;;;;;;;;;;5076703;28;20021;-28
2023/08/05 04:52:33;;;;;;;1.77;1.67;;;;;;;;;;5076782;28;20043;-29
2023/08/05 04:55:08;;;;;;;2.40;1.40;;;;;;;;;;5059020;28;20036;-28
2023/08/05 04:57:35;;;;;;;1.95;1.85;;;;;;;;;;5059393;28;20108;-28
2023/08/05 05:00:01;;;;;;;1.83;1.65;;;;;;;;;;5058828;28;20371;-28
2023/08/05 05:02:27;;;;;;;3.25;1.50;;;;;;;;;;5076740;28;20075;-29
2023/08/05 05:04:53;;;;;;;1.40;1.30;;;;;;;;;;5076509;28;20146;-29
2023/08/05 05:07:19;;;;;;;1.65;1.55;;;;;;;;;;5076394;28;20464;-28
2023/08/05 05:09:45;;;;;;;1.73;1.63;;;;;;;;;;5076358;28;20051;-28
2023/08/05 05:12:11;;;;;;;2.15;1.77;;;;;;;;;;5076345;28;20096;-28
2023/08/05 05:14:44;;;;;;;2.38;1.40;;;;;;;;;;5076597;28;20082;-28
2023/08/05 05:17:10;;;;;;;1.85;1.45;;;;;;;;;;5076584;28;20409;-28
2023/08/05 05:19:36;;;;;;;2.15;1.42;;;;;;;;;;5076403;28;20101;-29
2023/08/05 05:22:02;;;;;;;1.60;1.50;;;;;;;;;;5076102;28;20075;-29
2023/08/05 05:24:30;;;;;;;2.63;1.55;;;;;;;;;;5058464;28;20020;-28
2023/08/05 05:26:57;;;;;;;1.65;1.50;;;;;;;;;;5076314;28;20489;-29
2023/08/05 05:29:23;;;;;;;2.05;1.60;;;;;;;;;;5076143;28;20333;-28
2023/08/05 05:31:49;;;;;;;2.28;1.60;;;;;;;;;;5075988;28;20141;-28
2023/08/05 05:34:16;;;;;;;3.70;2.13;;;;;;;;;;5076101;28;20024;-28
2023/08/05 05:36:42;;;;;;;1.65;1.55;;;;;;;;;;5076135;28;20028;-28
2023/08/05 05:39:08;;;;;;;1.40;1.30;;;;;;;;;;5058129;28;20024;-28
2023/08/05 05:41:34;;;;;;;1.60;1.50;;;;;;;;;;5075561;28;20036;-28
2023/08/05 05:44:03;;;;;;;3.35;1.50;;;;;;;;;;5075708;28;20048;-29
2023/08/05 05:46:32;;;;;;;1.63;1.52;;;;;;;;;;5075544;28;20021;-28
2023/08/05 05:48:58;;;;;;;1.90;1.55;;;;;;;;;;5074975;28;20025;-28
2023/08/05 05:51:25;;;;;;;1.48;1.38;;;;;;;;;;5075727;28;20365;-28
2023/08/05 05:53:51;;;;;;;2.30;1.70;;;;;;;;;;5075521;28;20024;-29
2023/08/05 05:56:18;;;;;;;1.50;1.33;;;;;;;;;;5075422;28;20052;-29
2023/08/05 05:58:44;;;;;;;1.50;1.40;;;;;;;;;;5075694;28;20043;-29
2023/08/05 06:01:10;;;;;;;2.42;1.30;;;;;;;;;;5075348;28;20036;-28
2023/08/05 06:03:38;;;;;;;1.63;1.40;;;;;;;;;;5075270;28;20324;-29
2023/08/05 06:06:04;;;;;;;1.80;1.70;;;;;;;;;;5075540;28;20360;-28
2023/08/05 06:08:31;;;;;;;2.60;1.50;;;;;;;;;;5075467;28;20021;-29
2023/08/05 06:11:03;;;;;;;1.63;1.52;;;;;;;;;;5057544;28;20351;-29
2023/08/05 06:13:29;;;;;;;1.70;1.55;;;;;;;;;;5075119;28;20020;-29
2023/08/05 06:15:55;;;;;;;2.50;1.77;;;;;;;;;;5075339;28;20029;-28
2023/08/05 06:18:21;;;;;;;1.50;1.40;;;;;;;;;;5075255;28;20332;-28
2023/08/05 06:20:48;;;;;;;1.73;1.25;;;;;;;;;;5074839;28;20032;-28
2023/08/05 06:23:14;;;;;;;1.45;1.35;;;;;;;;;;5057252;28;20055;-29
2023/08/05 06:25:40;;;;;;;1.52;1.42;;;;;;;;;;5074981;28;20020;-29
2023/08/05 06:28:06;;;;;;;3.50;1.67;;;;;;;;;;5074921;28;20451;-28
2023/08/05 06:30:34;;;;;;;2.38;1.55;;;;;;;;;;5074833;28;20021;-29
2023/08/05 06:33:00;;;;;;;1.95;1.42;;;;;;;;;;5058333;28;20117;-29
2023/08/05 06:35:26;;;;;;;4.55;1.50;;;;;;;;;;5057141;28;20024;-28
2023/08/05 06:37:52;;;;;;;1.50;1.40;;;;;;;;;;5075077;28;20025;-28
2023/08/05 06:40:18;;;;;;;2.08;1.45;;;;;;;;;;5074507;28;20127;-28
2023/08/05 06:42:44;;;;;;;1.60;1.50;;;;;;;;;;5075040;28;20116;-28
2023/08/05 06:45:11;;;;;;;1.98;1.58;;;;;;;;;;5074711;28;20024;-29
2023/08/05 06:47:37;;;;;;;1.50;1.40;;;;;;;;;;5074673;28;20024;-28
2023/08/05 06:50:07;;;;;;;2.80;1.50;;;;;;;;;;5074607;28;20024;-28
2023/08/05 06:52:34;;;;;;;1.92;1.48;;;;;;;;;;5074644;28;20095;-29
2023/08/05 06:55:02;;;;;;;1.60;1.50;;;;;;;;;;5074595;28;20094;-28
2023/08/05 06:57:28;;;;;;;2.15;1.92;;;;;;;;;;5056868;28;20027;-28
2023/08/05 06:59:54;;;;;;;1.42;1.20;;;;;;;;;;5074376;28;20017;-28
2023/08/05 07:02:20;;;;;;;1.80;1.70;;;;;;;;;;5074464;28;20367;-29
2023/08/05 07:04:46;;;;;;;1.67;1.40;;;;;;;;;;5074525;28;20089;-29
2023/08/05 07:07:12;;;;;;;1.60;1.33;;;;;;;;;;5074508;28;20025;-28
2023/08/05 07:09:38;;;;;;;2.55;1.45;;;;;;;;;;5074399;28;20030;-28
2023/08/05 07:12:05;;;;;;;1.23;1.23;;;;;;;;;;5074387;28;20081;-29
2023/08/05 07:14:32;;;;;;;2.45;1.33;;;;;;;;;;5075050;28;20032;-28
2023/08/05 07:16:58;;;;;;;1.50;1.40;;;;;;;;;;5074530;28;20036;-28
2023/08/05 07:19:24;;;;;;;1.63;1.50;;;;;;;;;;5074162;28;20097;-28
2023/08/05 07:21:51;;;;;;;3.17;1.60;;;;;;;;;;5074263;28;20024;-28
2023/08/05 07:24:19;;;;;;;1.02;1.02;;;;;;;;;;5074538;28;20066;-29
2023/08/05 07:26:46;;;;;;;1.55;1.40;;;;;;;;;;5056604;28;20359;-28
2023/08/05 07:29:12;;;;;;;1.80;1.70;;;;;;;;;;5056610;28;20032;-29
2023/08/05 07:31:38;;;;;;;3.33;1.55;;;;;;;;;;5056433;28;20024;-28
2023/08/05 07:34:09;;;;;;;1.58;1.48;;;;;;;;;;5056582;28;20086;-28
2023/08/05 07:36:35;;;;;;;;;;;;;;;;;;5074597;28;20040;-28
2023/08/05 07:39:06;;;;;;;2.25;1.55;;;;;;;;;;5074229;28;19904;-28
2023/08/05 07:41:32;;;;;;;3.90;1.58;;;;;;;;;;5073873;28;20037;-28
2023/08/05 07:44:00;;;;;;;1.58;1.48;;;;;;;;;;5074142;28;20032;-28
2023/08/05 07:46:26;;;;;;;1.65;1.55;;;;;;;;;;5074336;28;20025;-28
2023/08/05 07:48:55;;;;;;;3.08;2.88;;;;;;;;;;5074336;28;20024;-29
2023/08/05 07:51:23;;;;;;;2.33;1.95;;;;;;;;;;5073942;28;20355;-29
2023/08/05 07:53:49;;;;;;;1.85;1.75;;;;;;;;;;5056438;28;20115;-29
2023/08/05 07:56:16;;;;;;;2.58;1.77;;;;;;;;;;5073975;28;20032;-28
2023/08/05 07:58:46;;;;;;;2.15;1.23;;;;;;;;;;5073986;28;20025;-28
2023/08/05 08:01:13;;;;;;;4.78;1.83;;;;;;;;;;5073804;28;20368;-29
2023/08/05 08:03:42;;;;;;;1.50;1.40;;;;;;;;;;5073924;28;20024;-28
2023/08/05 08:06:08;;;;;;;5.05;2.40;;;;;;;;;;5074191;28;20027;-28
2023/08/05 08:08:34;;;;;;;1.40;1.30;;;;;;;;;;5073864;28;20040;-29
2023/08/05 08:11:00;;;;;;;1.67;1.58;;;;;;;;;;5075276;28;20448;-29
2023/08/05 08:13:26;;;;;;;3.00;1.40;;;;;;;;;;5059838;28;20029;-29
2023/08/05 08:15:52;;;;;;;1.65;1.40;;;;;;;;;;5077701;28;20035;-29
2023/08/05 08:18:18;;;;;;;1.55;1.45;;;;;;;;;;5077294;28;20028;-28
2023/08/05 08:20:51;;;;;;;2.88;1.50;;;;;;;;;;5077374;28;20039;-28
2023/08/05 08:23:17;;;;;;;3.13;2.17;;;;;;;;;;5077197;28;20149;-28
2023/08/05 08:25:43;;;;;;;1.50;1.40;;;;;;;;;;5077086;28;20404;-28
2023/08/05 08:28:09;;;;;;;3.95;1.58;;;;;;;;;;5077013;28;20032;-29
2023/08/05 08:30:35;;;;;;;1.05;1.05;;;;;;;;;;5076999;28;20029;-28
2023/08/05 08:33:02;;;;;;;1.35;1.23;;;;;;;;;;5076991;28;20024;-29
2023/08/05 08:35:28;;;;;;;1.92;1.75;;;;;;;;;;5077217;28;20040;-28
2023/08/05 08:37:54;;;;;;;3.70;1.45;;;;;;;;;;5076938;28;20077;-28
2023/08/05 08:40:20;;;;;;;2.22;1.40;;;;;;;;;;5076850;28;20107;-28
2023/08/05 08:42:47;;;;;;;2.05;1.20;;;;;;;;;;5077021;28;20045;-29
2023/08/05 08:45:15;;;;;;;1.70;1.60;;;;;;;;;;5076931;28;20363;-28
2023/08/05 08:47:42;;;;;;;1.35;1.25;;;;;;;;;;5077087;28;20151;-28
2023/08/05 08:50:09;;;;;;;6.00;1.25;;;;;;;;;;5076612;28;20024;-28
2023/08/05 08:52:39;;;;;;;1.58;1.48;;;;;;;;;;5076942;28;20351;-29
2023/08/05 08:55:05;;;;;;;1.23;1.23;;;;;;;;;;5076930;28;20447;-28
2023/08/05 08:57:31;;;;;;;1.42;1.20;;;;;;;;;;5076793;28;20363;-28
2023/08/05 08:59:57;;;;;;;1.60;1.40;;;;;;;;;;5076678;28;20021;-28
2023/08/05 09:02:25;;;;;;;1.38;1.27;;;;;;;;;;5076937;28;20563;-29
2023/08/05 09:04:54;;;;;;;1.67;1.30;;;;;;;;;;5076800;28;20029;-28
2023/08/05 09:07:26;;;;;;;1.45;1.33;;;;;;;;;;5076371;28;20025;-28
2023/08/05 09:09:53;;;;;;;1.40;1.27;;;;;;;;;;5076429;28;20021;-29
2023/08/05 09:12:19;;;;;;;1.17;1.13;;;;;;;;;;5076366;28;20021;-29
2023/08/05 09:14:45;;;;;;;1.20;1.20;;;;;;;;;;5076300;28;20032;-29
2023/08/05 09:17:14;;;;;;;1.65;1.27;;;;;;;;;;5076297;28;20120;-29
2023/08/05 09:19:44;;;;;;;1.30;1.20;;;;;;;;;;5076136;28;20052;-28
2023/08/05 09:22:10;;;;;;;1.20;1.20;;;;;;;;;;5075915;28;20032;-30
2023/08/05 09:24:36;;;;;;;1.42;1.33;;;;;;;;;;5076106;28;20116;-29
2023/08/05 09:27:02;;;;;;;1.45;1.35;;;;;;;;;;5076359;28;20028;-28
2023/08/05 09:29:29;;;;;;;2.67;2.35;;;;;;;;;;5076205;28;20351;-28
2023/08/05 09:31:58;;;;;;;1.50;1.40;;;;;;;;;;5076049;28;20337;-28
2023/08/05 09:34:34;;;;;;;1.67;1.52;;;;;;;;;;5076020;28;20089;-28
2023/08/05 09:37:01;;;;;;;1.30;1.20;;;;;;;;;;5075871;28;20332;-28
2023/08/05 09:39:42;;;;;;;1.58;1.40;;;;;;;;;;5075891;28;20530;-28
2023/08/05 09:42:16;;;;;;;1.02;1.02;;;;;;;;;;5075549;28;20101;-29
2023/08/05 09:44:42;;;;;;;1.88;1.77;;;;;;;;;;5075978;28;20411;-29
2023/08/05 09:47:10;;;;;;;1.33;1.23;;;;;;;;;;5075677;28;20020;-29
2023/08/05 09:49:38;;;;;;;3.53;1.60;;;;;;;;;;5075367;28;20074;-28
2023/08/05 09:52:05;;;;;;;3.78;1.90;;;;;;;;;;5075271;28;20027;-28
2023/08/05 09:54:32;;;;;;;1.63;1.52;;;;;;;;;;5075162;28;20041;-29
2023/08/05 09:57:03;;;;;;;1.30;1.30;;;;;;;;;;5075329;28;20035;-29
2023/08/05 09:59:29;;;;;;;1.37;1.27;;;;;;;;;;5075563;28;20033;-28
2023/08/05 10:01:56;;;;;;;1.70;1.60;;;;;;;;;;5075246;28;20388;-28
2023/08/05 10:04:23;;;;;;;1.45;1.35;;;;;;;;;;5075271;28;20023;-28
2023/08/05 10:06:50;;;;;;;1.60;1.50;;;;;;;;;;5057700;28;20090;-28
2023/08/05 10:09:16;;;;;;;2.15;1.88;;;;;;;;;;5075231;28;20036;-28
2023/08/05 10:11:42;;;;;;;3.33;1.17;;;;;;;;;;5075090;28;20020;-28
2023/08/05 10:14:09;;;;;;;1.83;1.70;;;;;;;;;;5075172;28;20165;-31
2023/08/05 10:16:38;;;;;;;1.75;1.65;;;;;;;;;;5075027;28;20024;-29
2023/08/05 10:19:05;;;;;;;2.00;1.65;;;;;;;;;;5075368;28;20028;-28
2023/08/05 10:21:37;;;;;;;2.00;1.90;;;;;;;;;;5057194;28;20028;-28
2023/08/05 10:24:04;;;;;;;2.17;1.83;;;;;;;;;;5057311;28;20021;-28
2023/08/05 10:26:56;;;;;;;1.70;1.60;;;;;;;;;;5074997;28;20359;-29
2023/08/05 10:29:29;;;;;;;1.65;1.55;;;;;;;;;;5053748;28;20032;-28
2023/08/05 10:32:09;;;;;;;1.48;1.38;;;;;;;;;;5074908;28;20363;-28
2023/08/05 10:34:35;;;;;;;1.52;1.40;;;;;;;;;;5074236;28;20478;-28
2023/08/05 10:37:01;;;;;;;1.80;1.70;;;;;;;;;;5074787;28;20528;-23
2023/08/05 10:39:39;;;;;;;1.70;1.60;;;;;;;;;;5074681;28;20447;-26
2023/08/05 10:42:32;;;;;;;1.77;1.67;;;;;;;;;;5074446;28;20132;-26
2023/08/05 10:45:03;;;;;;;1.73;1.63;;;;;;;;;;5071397;28;20043;-24
2023/08/05 10:47:30;;;;;;;1.90;1.80;;;;;;;;;;5074883;28;20472;-25
2023/08/05 10:49:57;;;;;;;1.58;1.48;;;;;;;;;;5074781;28;20469;-25
2023/08/05 10:52:23;;;;;;;2.05;1.92;;;;;;;;;;5074524;28;20359;-25
2023/08/05 10:54:49;;;;;;;1.65;1.42;;;;;;;;;;5074525;28;20096;-24
2023/08/05 10:57:34;;;;;;;1.92;1.83;;;;;;;;;;5075372;28;20052;-26
2023/08/05 11:00:00;;;;;;;1.80;1.70;;;;;;;;;;5074486;28;20035;-26
2023/08/05 11:02:27;;;;;;;1.70;1.60;;;;;;;;;;5074735;28;20355;-26
2023/08/05 11:05:08;;;;;;;1.88;1.77;;;;;;;;;;5074526;28;20020;-24
2023/08/05 11:07:38;;;;;;;1.98;1.60;;;;;;;;;;5074550;28;20099;-24
2023/08/05 11:10:05;;;;;;;2.28;1.80;;;;;;;;;;5074689;28;20409;-29
2023/08/05 11:12:31;;;;;;;1.70;1.60;;;;;;;;;;5074504;28;20021;-27
2023/08/05 11:14:57;;;;;;;1.15;1.15;;;;;;;;;;5074707;28;20024;-25
2023/08/05 11:17:24;;;;;;;2.28;1.77;;;;;;;;;;5074428;28;20035;-26
2023/08/05 11:19:53;;;;;;;1.92;1.83;;;;;;;;;;5074610;28;20039;-26
2023/08/05 11:22:26;;;;;;;1.90;1.80;;;;;;;;;;5074571;28;20021;-28
2023/08/05 11:24:59;;;;;;;1.90;1.70;;;;;;;;;;5074347;28;20024;-27
2023/08/05 11:27:32;;;;;;;1.73;1.63;;;;;;;;;;5056714;28;20544;-25
2023/08/05 11:29:58;;;;;;;2.35;2.15;;;;;;;;;;5074266;28;20333;-24
2023/08/05 11:32:25;;;;;;;2.15;1.95;;;;;;;;;;5074275;28;20173;-24
2023/08/05 11:35:00;;;;;;;2.20;1.88;;;;;;;;;;5074293;28;20028;-25
2023/08/05 11:37:26;;;;;;;1.80;1.70;;;;;;;;;;5074542;28;20347;-28
2023/08/05 11:40:00;;;;;;;1.83;1.73;;;;;;;;;;5074174;28;20024;-26
2023/08/05 11:42:26;;;;;;;2.25;2.05;;;;;;;;;;5034173;28;20045;-23
2023/08/05 11:44:52;;;;;;;2.00;1.90;;;;;;;;;;5033307;28;20021;-27
2023/08/05 11:47:19;;;;;;;1.75;1.65;;;;;;;;;;5038073;28;20083;-24
2023/08/05 11:49:54;;;;;;;2.20;1.88;;;;;;;;;;5037992;28;20076;-23
2023/08/05 11:52:21;;;;;;;1.88;1.77;;;;;;;;;;5038261;28;20032;-27
2023/08/05 11:54:59;;;;;;;2.97;1.90;;;;;;;;;;5038214;28;20025;-25
2023/08/05 11:57:25;;;;;;;2.10;2.00;;;;;;;;;;5038186;28;20099;-29
2023/08/05 11:59:53;;;;;;;1.80;1.70;;;;;;;;;;5038056;28;20330;-24
2023/08/05 12:02:20;;;;;;;1.90;1.80;;;;;;;;;;5036875;28;20021;-24
2023/08/05 12:04:46;;;;;;;1.75;1.48;;;;;;;;;;5037789;28;20033;-25
2023/08/05 12:07:19;;;;;;;2.03;1.92;;;;;;;;;;5037985;28;20049;-25
2023/08/05 12:09:45;;;;;;;1.67;1.58;;;;;;;;;;5037889;28;20452;-27
2023/08/05 12:12:16;;;;;;;1.83;1.73;;;;;;;;;;5037622;28;20098;-24
2023/08/05 12:14:42;;;;;;;1.95;1.80;;;;;;;;;;5037891;28;20109;-25
2023/08/05 12:17:08;;;;;;;1.67;1.58;;;;;;;;;;5037800;28;20087;-27
2023/08/05 12:19:35;;;;;;;1.73;1.63;;;;;;;;;;5038182;28;20036;-24
2023/08/05 12:22:01;;;;;;;1.52;1.42;;;;;;;;;;5037368;28;20064;-24
2023/08/05 12:24:27;;;;;;;1.92;1.83;;;;;;;;;;5037367;28;20100;-26
2023/08/05 12:26:53;;;;;;;2.05;1.85;;;;;;;;;;5036438;28;20386;-27
2023/08/05 12:29:19;;;;;;;1.60;1.50;;;;;;;;;;5037356;28;20124;-27
2023/08/05 12:31:45;;;;;;;1.92;1.83;;;;;;;;;;5037205;28;20030;-26
2023/08/05 12:34:11;;;;;;;1.77;1.67;;;;;;;;;;5037219;28;20429;-24
2023/08/05 12:36:37;;;;;;;2.03;1.92;;;;;;;;;;5037128;28;20029;-26
2023/08/05 12:39:04;;;;;;;3.20;2.90;;;;;;;;;;5037137;28;20030;-26
2023/08/05 12:41:30;;;;;;;2.20;1.77;;;;;;;;;;5063500;28;20055;-27
2023/08/05 12:43:56;;;;;;;1.90;1.80;;;;;;;;;;5077023;28;20352;-29
2023/08/05 12:46:22;;;;;;;1.60;1.50;;;;;;;;;;5076970;28;20021;-27
2023/08/05 12:48:48;;;;;;;1.98;1.88;;;;;;;;;;5076891;28;20029;-27
2023/08/05 12:51:14;;;;;;;1.90;1.80;;;;;;;;;;5077050;28;20017;-27
2023/08/05 12:53:41;;;;;;;2.45;2.10;;;;;;;;;;5076819;28;20028;-26
2023/08/05 12:56:07;;;;;;;1.90;1.80;;;;;;;;;;5076439;28;20025;-28
2023/08/05 12:58:34;;;;;;;1.88;1.70;;;;;;;;;;5077003;28;20351;-25
2023/08/05 13:01:00;;;;;;;1.80;1.70;;;;;;;;;;5076635;28;20028;-26
2023/08/05 13:03:26;;;;;;;2.35;1.85;;;;;;;;;;5076598;28;20017;-25
2023/08/05 13:05:52;;;;;;;3.22;2.28;;;;;;;;;;5076580;28;20117;-27
2023/08/05 13:08:18;;;;;;;2.78;2.15;;;;;;;;;;5076541;28;20106;-24
2023/08/05 13:10:45;;;;;;;2.03;1.90;;;;;;;;;;5076581;28;20094;-24
2023/08/05 13:13:11;;;;;;;1.70;1.60;;;;;;;;;;5076456;28;20048;-25
2023/08/05 13:15:37;;;;;;;2.20;2.00;;;;;;;;;;5076441;28;20142;-26
2023/08/05 13:18:04;;;;;;;1.92;1.83;;;;;;;;;;5076604;28;20024;-24
2023/08/05 13:20:30;;;;;;;1.63;1.52;;;;;;;;;;5076358;28;20028;-28
2023/08/05 13:22:56;;;;;;;2.28;2.08;;;;;;;;;;5076202;28;20115;-24
2023/08/05 13:25:22;;;;;;;1.77;1.67;;;;;;;;;;5076206;28;20036;-27
2023/08/05 13:27:49;;;;;;;1.92;1.83;;;;;;;;;;5076119;28;20082;-29
2023/08/05 13:30:15;;;;;;;1.98;1.60;;;;;;;;;;5076314;28;20104;-24
2023/08/05 13:32:41;;;;;;;3.78;2.22;;;;;;;;;;5076078;28;20024;-25
2023/08/05 13:35:08;;;;;;;1.90;1.80;;;;;;;;;;5076289;28;20321;-28
2023/08/05 13:37:34;;;;;;;2.00;1.90;;;;;;;;;;5075987;28;20029;-24
2023/08/05 13:40:00;;;;;;;1.77;1.67;;;;;;;;;;5075624;28;20047;-25
2023/08/05 13:42:27;;;;;;;3.25;2.10;;;;;;;;;;5076081;28;20036;-29
2023/08/05 13:44:53;;;;;;;2.00;1.90;;;;;;;;;;5076331;28;20032;-26
2023/08/05 13:47:19;;;;;;;1.92;1.83;;;;;;;;;;5076002;28;20336;-25
2023/08/05 13:49:45;;;;;;;1.90;1.80;;;;;;;;;;5075884;28;20025;-27
2023/08/05 13:52:11;;;;;;;1.88;1.77;;;;;;;;;;5075692;28;20362;-26
2023/08/05 13:54:37;;;;;;;2.00;1.90;;;;;;;;;;5058000;28;20503;-24
2023/08/05 13:57:03;;;;;;;2.05;1.85;;;;;;;;;;5075531;28;20024;-26
2023/08/05 13:59:29;;;;;;;2.20;2.00;;;;;;;;;;5075711;28;20351;-24
2023/08/05 14:01:57;;;;;;;2.35;2.25;;;;;;;;;;5075264;28;20075;-24
2023/08/05 14:04:23;;;;;;;2.22;2.10;;;;;;;;;;5075398;28;20088;-27
2023/08/05 14:06:49;;;;;;;2.38;2.22;;;;;;;;;;5057771;28;20332;-24
2023/08/05 14:09:15;;;;;;;2.22;2.03;;;;;;;;;;5074754;28;20090;-24
2023/08/05 14:11:41;;;;;;;2.00;1.77;;;;;;;;;;5075214;28;20021;-24
2023/08/05 14:14:07;;;;;;;1.75;1.65;;;;;;;;;;5075207;28;20029;-23
2023/08/05 14:16:35;;;;;;;2.10;1.95;;;;;;;;;;5075413;28;20440;-24
2023/08/05 14:19:02;;;;;;;1.88;1.52;;;;;;;;;;5075360;28;20040;-23
2023/08/05 14:21:28;;;;;;;2.30;2.10;;;;;;;;;;5074961;28;20039;-27
2023/08/05 14:23:54;;;;;;;2.42;2.22;;;;;;;;;;5057508;28;20020;-24
2023/08/05 14:26:20;;;;;;;2.30;2.20;;;;;;;;;;5074932;28;20020;-25
2023/08/05 14:28:47;;;;;;;2.55;2.45;;;;;;;;;;5075259;28;20351;-25
2023/08/05 14:31:13;;;;;;;2.20;2.10;;;;;;;;;;5074871;28;20444;-25
2023/08/05 14:33:39;;;;;;;2.13;2.03;;;;;;;;;;5075170;28;20033;-24
2023/08/05 14:36:12;;;;;;;2.20;2.10;;;;;;;;;;5074884;28;20082;-24
2023/08/05 14:38:38;;;;;;;2.33;2.05;;;;;;;;;;5074859;28;20027;-25
2023/08/05 14:41:04;;;;;;;2.03;1.92;;;;;;;;;;5074572;28;20048;-24
2023/08/05 14:43:30;;;;;;;1.85;1.73;;;;;;;;;;5075075;28;20032;-24